createdAt,value
2019-01-31T00:01:07.426Z,3.20
2019-01-31T00:04:33.551Z,3.20
2019-01-31T00:07:54.350Z,3.20
2019-01-31T00:11:03.619Z,3.20
2019-01-31T00:14:49.669Z,3.20
2019-01-31T00:18:04.439Z,3.20
2019-01-31T00:21:13.341Z,3.20
2019-01-31T00:24:24.900Z,3.30
2019-01-31T00:28:13.753Z,3.30
2019-01-31T00:32:12.815Z,3.30
2019-01-31T00:35:53.820Z,3.20
2019-01-31T00:39:07.772Z,3.10
2019-01-31T00:42:44.858Z,2.90
2019-01-31T00:46:03.871Z,2.70
2019-01-31T00:49:46.512Z,2.60
2019-01-31T00:53:23.501Z,2.50
2019-01-31T00:56:20.967Z,2.40
2019-01-31T00:59:41.581Z,2.20
2019-01-31T01:03:19.491Z,2.20
2019-01-31T01:07:08.950Z,2.10
2019-01-31T01:10:18.217Z,2.00
2019-01-31T01:13:28.238Z,1.90
2019-01-31T01:16:38.113Z,1.90
2019-01-31T01:19:51.125Z,1.90
2019-01-31T01:23:18.419Z,1.80
2019-01-31T01:26:59.518Z,1.80
2019-01-31T01:30:19.551Z,1.70
2019-01-31T01:34:08.213Z,1.60
2019-01-31T01:37:08.353Z,1.50
2019-01-31T01:40:41.537Z,1.40
2019-01-31T01:43:51.680Z,1.30
2019-01-31T01:46:56.124Z,1.20
2019-01-31T01:50:08.165Z,1.20
2019-01-31T01:53:07.435Z,1.10
2019-01-31T01:56:18.815Z,1.00
2019-01-31T01:59:41.745Z,1.00
2019-01-31T02:03:19.713Z,0.90
2019-01-31T02:06:56.976Z,0.90
2019-01-31T02:10:16.427Z,0.90
2019-01-31T02:13:43.700Z,1.00
2019-01-31T02:17:24.277Z,1.10
2019-01-31T02:20:33.011Z,1.30
2019-01-31T02:23:45.486Z,1.50
2019-01-31T02:27:21.739Z,1.60
2019-01-31T02:31:06.561Z,1.80
2019-01-31T02:34:47.027Z,1.90
2019-01-31T02:38:10.967Z,2.00
2019-01-31T02:42:02.993Z,2.10
2019-01-31T02:45:31.244Z,2.10
2019-01-31T02:48:56.221Z,2.10
2019-01-31T02:52:23.758Z,2.00
2019-01-31T02:55:39.566Z,2.00
2019-01-31T02:58:53.713Z,2.00
2019-01-31T03:02:34.736Z,1.90
2019-01-31T03:06:00.648Z,1.80
2019-01-31T03:09:36.356Z,1.70
2019-01-31T03:12:48.611Z,1.50
2019-01-31T03:15:55.874Z,1.60
2019-01-31T03:19:00.599Z,1.60
2019-01-31T03:22:28.475Z,1.70
2019-01-31T03:26:04.129Z,1.80
2019-01-31T03:29:44.984Z,1.90
2019-01-31T03:32:46.002Z,2.00
2019-01-31T03:36:14.959Z,2.10
2019-01-31T03:39:39.375Z,2.20
2019-01-31T03:42:59.636Z,2.20
2019-01-31T03:46:42.591Z,2.30
2019-01-31T03:50:06.786Z,2.30
2019-01-31T03:53:16.077Z,2.40
2019-01-31T03:57:01.920Z,2.40
2019-01-31T04:00:26.926Z,2.40
2019-01-31T04:03:32.854Z,2.40
2019-01-31T04:06:26.728Z,2.40
2019-01-31T04:09:04.406Z,2.40
2019-01-31T04:11:41.925Z,2.40
2019-01-31T04:14:19.416Z,2.40
2019-01-31T04:16:57.015Z,2.50
2019-01-31T04:19:34.542Z,2.50
2019-01-31T04:22:12.083Z,2.60
2019-01-31T04:24:49.596Z,2.60
2019-01-31T04:27:27.133Z,2.60
2019-01-31T04:30:04.625Z,2.60
2019-01-31T04:32:42.154Z,2.60
2019-01-31T04:35:19.647Z,2.50
2019-01-31T04:37:57.176Z,2.50
2019-01-31T04:40:34.679Z,2.50
2019-01-31T04:43:12.215Z,2.50
2019-01-31T04:45:49.834Z,2.50
2019-01-31T04:48:27.275Z,2.50
2019-01-31T04:51:04.795Z,2.50
2019-01-31T04:53:42.318Z,2.50
2019-01-31T04:56:19.821Z,2.50
2019-01-31T04:58:57.353Z,2.50
2019-01-31T05:01:34.903Z,2.50
2019-01-31T05:04:12.424Z,2.60
2019-01-31T05:06:49.980Z,2.60
2019-01-31T05:09:27.656Z,2.60
2019-01-31T05:12:05.100Z,2.60
2019-01-31T05:14:42.658Z,2.60
2019-01-31T05:17:20.219Z,2.60
2019-01-31T05:19:57.809Z,2.60
2019-01-31T05:22:35.385Z,2.60
2019-01-31T05:25:14.193Z,2.60
2019-01-31T05:27:51.738Z,2.60
2019-01-31T05:30:29.312Z,2.50
2019-01-31T05:33:06.905Z,2.50
2019-01-31T05:35:44.411Z,2.50
2019-01-31T11:15:23.034Z,4.50
2019-01-31T11:18:32.684Z,4.60
2019-01-31T11:22:34.653Z,4.80
2019-01-31T11:26:27.106Z,4.90
2019-01-31T11:29:57.531Z,5.00
2019-01-31T11:33:40.091Z,5.20
2019-01-31T11:37:14.113Z,5.30
2019-01-31T11:40:45.094Z,5.40
2019-01-31T11:44:11.765Z,5.60
2019-01-31T11:47:47.494Z,5.80
2019-01-31T11:51:33.739Z,5.90
2019-01-31T11:55:11.976Z,6.00
2019-01-31T11:58:45.355Z,6.10
2019-01-31T12:01:22.873Z,6.30
2019-01-31T12:04:17.696Z,6.40
2019-01-31T12:06:55.263Z,6.50
2019-01-31T12:09:32.809Z,6.70
2019-01-31T12:12:10.392Z,6.80
2019-01-31T12:14:47.936Z,6.90
2019-01-31T12:17:25.478Z,7.00
2019-01-31T12:20:03.069Z,7.20
2019-01-31T12:22:40.554Z,7.40
2019-01-31T12:25:18.080Z,7.50
2019-01-31T12:27:55.575Z,7.50
2019-01-31T12:30:33.126Z,7.60
2019-01-31T12:33:10.644Z,7.60
2019-01-31T12:35:48.178Z,7.70
2019-01-31T12:38:36.266Z,7.90
2019-01-31T12:41:03.258Z,7.90
2019-01-31T12:43:40.762Z,8.00
2019-01-31T12:46:18.286Z,8.10
2019-01-31T12:48:55.768Z,8.20
2019-01-31T12:51:33.294Z,8.30
2019-01-31T12:54:10.799Z,8.50
2019-01-31T12:56:48.736Z,8.50
2019-01-31T12:59:26.234Z,8.50
2019-01-31T13:02:06.735Z,8.60
2019-01-31T13:04:44.253Z,8.90
2019-01-31T13:07:21.783Z,9.10
2019-01-31T13:09:59.284Z,9.40
2019-01-31T13:12:48.310Z,9.80
2019-01-31T13:15:18.078Z,10.40
2019-01-31T13:17:57.486Z,11.00
2019-01-31T13:20:35.989Z,11.60
2019-01-31T13:23:13.500Z,12.20
2019-01-31T13:25:51.031Z,12.80
2019-01-31T13:28:28.616Z,13.30
2019-01-31T13:31:06.199Z,13.60
2019-01-31T13:33:46.528Z,14.20
2019-01-31T13:36:21.252Z,14.70
2019-01-31T13:38:58.768Z,15.20
2019-01-31T13:41:36.276Z,15.40
2019-01-31T13:44:13.776Z,15.40
2019-01-31T13:46:51.357Z,15.60
2019-01-31T13:49:28.894Z,16.00
2019-01-31T13:55:02.547Z,16.70
2019-01-31T13:57:40.091Z,16.80
2019-01-31T14:00:18.416Z,16.20
2019-01-31T14:02:55.937Z,15.10
2019-01-31T14:05:33.918Z,14.70
2019-01-31T14:08:11.502Z,14.70
2019-01-31T14:10:49.089Z,14.70
2019-01-31T14:13:26.541Z,14.60
2019-01-31T14:16:04.116Z,14.40
2019-01-31T14:18:53.299Z,14.00
2019-01-31T14:21:27.853Z,13.60
2019-01-31T14:24:05.389Z,13.10
2019-01-31T14:26:42.924Z,12.70
2019-01-31T14:29:20.424Z,12.30
2019-01-31T14:31:57.962Z,12.30
2019-01-31T14:34:35.516Z,12.70
2019-01-31T14:37:13.057Z,13.40
2019-01-31T14:39:50.574Z,14.20
2019-01-31T14:42:28.107Z,15.00
2019-01-31T14:45:05.697Z,15.60
2019-01-31T14:47:43.244Z,16.10
2019-01-31T14:50:24.897Z,16.50
2019-01-31T14:53:05.421Z,16.90
2019-01-31T14:55:42.929Z,17.00
2019-01-31T14:58:20.547Z,17.10
2019-01-31T15:00:58.932Z,17.20
2019-01-31T15:03:40.856Z,17.50
2019-01-31T15:06:18.382Z,17.50
2019-01-31T15:08:55.912Z,17.70
2019-01-31T15:11:33.473Z,17.90
2019-01-31T15:14:10.988Z,18.00
2019-01-31T15:16:48.547Z,18.20
2019-01-31T15:19:26.059Z,18.30
2019-01-31T15:22:03.608Z,18.40
2019-01-31T15:24:41.179Z,18.40
2019-01-31T15:27:18.720Z,18.20
2019-01-31T15:29:56.254Z,18.00
2019-01-31T15:32:33.808Z,17.70
2019-01-31T15:35:12.039Z,17.30
2019-01-31T15:37:49.573Z,16.80
2019-01-31T15:40:40.891Z,16.10
2019-01-31T15:43:18.514Z,15.30
2019-01-31T15:45:56.045Z,14.30
2019-01-31T15:48:33.582Z,13.30
2019-01-31T15:51:11.126Z,12.20
2019-01-31T15:53:48.692Z,11.20
2019-01-31T15:56:26.287Z,10.30
2019-01-31T15:59:03.815Z,9.40
2019-01-31T16:01:41.323Z,8.60
2019-01-31T16:04:18.849Z,8.00
2019-01-31T16:06:56.398Z,7.40
2019-01-31T16:09:33.902Z,6.80
2019-01-31T16:12:11.461Z,6.30
2019-01-31T16:14:55.057Z,5.90
2019-01-31T16:17:26.526Z,5.50
2019-01-31T16:20:04.125Z,5.10
2019-01-31T16:22:41.650Z,4.70
2019-01-31T16:25:19.166Z,4.40
2019-01-31T16:27:57.161Z,4.20
2019-01-31T16:30:34.709Z,3.90
2019-01-31T16:33:12.250Z,3.70
2019-01-31T16:35:53.675Z,3.50
2019-01-31T16:38:28.702Z,3.40
2019-01-31T16:41:06.300Z,3.20
2019-01-31T16:43:43.828Z,3.00
2019-01-31T16:46:21.346Z,2.90
2019-01-31T16:48:58.921Z,2.70
2019-01-31T16:51:36.493Z,2.60
2019-01-31T16:54:14.071Z,2.50
2019-01-31T16:56:51.586Z,2.40
2019-01-31T16:59:29.143Z,2.40
2019-01-31T17:02:06.636Z,2.30
2019-01-31T17:04:44.780Z,2.20
2019-01-31T17:07:22.785Z,2.10
2019-01-31T17:10:00.895Z,2.10
2019-01-31T17:12:38.698Z,2.00
2019-01-31T17:15:18.555Z,2.00
2019-01-31T17:17:56.709Z,2.00
2019-01-31T17:20:55.067Z,1.90
2019-01-31T17:23:33.327Z,1.90
2019-01-31T17:26:11.522Z,1.80
2019-01-31T17:28:49.587Z,1.80
2019-01-31T17:31:27.643Z,1.70
2019-01-31T17:34:05.683Z,1.70
2019-01-31T17:36:45.955Z,1.60
2019-01-31T17:39:21.593Z,1.60
2019-01-31T17:41:59.421Z,1.50
2019-01-31T17:44:37.312Z,1.50
2019-01-31T17:47:15.075Z,1.40
2019-01-31T17:50:01.243Z,1.40
2019-01-31T17:52:38.965Z,1.30
2019-01-31T17:58:05.115Z,1.20
2019-01-31T18:00:51.723Z,1.10
2019-01-31T18:03:29.830Z,1.10
2019-01-31T18:06:08.038Z,1.00
2019-01-31T18:08:46.406Z,1.00
2019-01-31T18:11:27.598Z,0.90
2019-01-31T18:14:05.958Z,0.90
2019-01-31T18:16:43.509Z,0.80
2019-01-31T18:19:21.045Z,0.80
2019-01-31T18:21:58.591Z,0.80
2019-01-31T18:24:36.143Z,0.70
2019-01-31T18:27:13.666Z,0.70
2019-01-31T18:29:52.477Z,0.60
2019-01-31T18:32:30.047Z,0.60
2019-01-31T18:35:09.089Z,0.50
2019-01-31T18:37:50.769Z,0.50
2019-01-31T18:40:34.540Z,0.40
2019-01-31T18:43:13.167Z,0.50
2019-01-31T18:45:53.493Z,0.50
2019-01-31T18:48:30.189Z,0.60
2019-01-31T18:51:08.822Z,0.60
2019-01-31T18:53:48.352Z,0.70
2019-01-31T18:56:27.126Z,0.70
2019-01-31T18:59:05.209Z,0.70
2019-01-31T19:01:43.279Z,0.60
2019-01-31T19:04:21.391Z,0.60
2019-01-31T19:06:59.695Z,0.60
2019-01-31T19:09:40.403Z,0.50
2019-01-31T19:12:18.440Z,0.50
2019-01-31T19:14:56.593Z,0.50
2019-01-31T19:17:36.029Z,0.50
2019-01-31T19:20:23.371Z,0.40
2019-01-31T19:23:05.288Z,0.40
2019-01-31T19:25:43.368Z,0.40
2019-01-31T19:28:21.719Z,0.40
2019-01-31T19:30:59.848Z,0.30
2019-01-31T19:33:37.932Z,0.30
2019-01-31T19:36:15.866Z,0.30
2019-01-31T19:38:54.514Z,0.30
2019-01-31T19:41:33.026Z,0.30
2019-01-31T19:44:11.253Z,0.30
2019-01-31T19:46:49.748Z,0.30
2019-01-31T19:49:27.970Z,0.30
2019-01-31T19:52:06.292Z,0.30
2019-01-31T19:54:43.804Z,0.20
2019-01-31T19:57:22.288Z,0.20
2019-01-31T20:00:00.614Z,0.20
2019-01-31T20:02:39.180Z,0.10
2019-01-31T20:05:17.878Z,0.10
2019-01-31T20:07:56.561Z,0.10
2019-01-31T20:10:34.878Z,0.00
2019-01-31T20:13:14.047Z,0.00
2019-01-31T20:15:55.539Z,-0.10
2019-01-31T20:18:34.270Z,-0.10
2019-01-31T20:21:12.439Z,-0.20
2019-01-31T20:23:50.510Z,-0.20
2019-01-31T20:26:28.746Z,-0.20
2019-01-31T20:29:06.738Z,-0.20
2019-01-31T20:31:45.186Z,-0.30
2019-01-31T20:34:23.452Z,-0.30
2019-01-31T20:37:00.979Z,-0.30
2019-01-31T20:39:38.522Z,-0.30
2019-01-31T20:42:16.147Z,-0.40
2019-01-31T20:44:53.692Z,-0.40
2019-01-31T20:47:31.278Z,-0.40
2019-01-31T20:50:12.951Z,-0.50
2019-01-31T20:52:50.699Z,-0.50
2019-01-31T20:55:28.350Z,-0.50
2019-01-31T20:58:05.937Z,-0.60
2019-01-31T21:00:48.963Z,-0.60
2019-01-31T21:03:26.698Z,-0.70
2019-01-31T21:06:04.287Z,-0.70
2019-01-31T21:08:41.861Z,-0.70
2019-01-31T21:11:19.404Z,-0.80
2019-01-31T21:13:56.940Z,-0.80
2019-01-31T21:16:34.481Z,-0.80
2019-01-31T21:19:12.017Z,-0.80
2019-01-31T21:21:49.606Z,-0.90
2019-01-31T21:24:27.138Z,-0.90
2019-01-31T21:27:04.656Z,-0.90
2019-01-31T21:29:42.399Z,-1.00
2019-01-31T21:32:20.158Z,-1.00
2019-01-31T21:34:57.657Z,-1.00
2019-01-31T21:37:35.386Z,-1.00
2019-01-31T21:40:14.030Z,-1.10
2019-01-31T21:42:51.588Z,-1.10
2019-01-31T21:45:29.493Z,-1.10
2019-01-31T21:48:08.667Z,-1.10
2019-01-31T21:50:46.218Z,-1.20
2019-01-31T21:53:23.745Z,-1.20
2019-01-31T21:56:01.281Z,-1.20
2019-01-31T21:58:38.816Z,-1.20
2019-01-31T22:01:16.345Z,-1.20
2019-01-31T22:03:53.872Z,-1.20
2019-01-31T22:06:31.395Z,-1.20
2019-01-31T22:09:12.090Z,-1.20
2019-01-31T22:11:49.518Z,-1.20
2019-01-31T22:14:27.040Z,-1.20
2019-01-31T22:17:14.344Z,-1.20
2019-01-31T22:19:42.156Z,-1.20
2019-01-31T22:22:19.889Z,-1.30
2019-01-31T22:24:57.489Z,-1.30
2019-01-31T22:27:35.030Z,-1.30
2019-01-31T22:30:23.363Z,-1.30
2019-01-31T22:33:00.923Z,-1.30
2019-01-31T22:35:38.444Z,-1.30
2019-01-31T22:38:15.984Z,-1.30
2019-01-31T22:40:53.482Z,-1.40
2019-01-31T22:43:31.006Z,-1.40
2019-01-31T22:46:08.536Z,-1.40
2019-01-31T22:48:46.102Z,-1.40
2019-01-31T22:51:23.697Z,-1.50
2019-01-31T22:54:01.225Z,-1.50
2019-01-31T22:56:38.771Z,-1.50
2019-01-31T22:59:16.309Z,-1.50
2019-01-31T23:01:57.191Z,-1.50
2019-01-31T23:04:34.736Z,-1.50
2019-01-31T23:07:12.269Z,-1.50
2019-01-31T23:09:49.778Z,-1.60
2019-01-31T23:12:27.336Z,-1.60
2019-01-31T23:15:04.956Z,-1.60
2019-01-31T23:17:42.516Z,-1.60
2019-01-31T23:20:20.008Z,-1.60
2019-01-31T23:22:57.532Z,-1.60
2019-01-31T23:25:40.223Z,-1.60
2019-01-31T23:28:12.548Z,-1.60
2019-01-31T23:30:50.079Z,-1.60
2019-01-31T23:33:27.620Z,-1.60
2019-01-31T23:36:05.119Z,-1.60
2019-01-31T23:38:42.635Z,-1.60
2019-01-31T23:41:20.160Z,-1.60
2019-01-31T23:43:57.751Z,-1.60
2019-01-31T23:46:35.361Z,-1.60
2019-01-31T23:49:12.888Z,-1.60
2019-01-31T23:51:50.437Z,-1.70
2019-01-31T23:54:27.953Z,-1.70
2019-01-31T23:57:05.535Z,-1.70
2019-01-31T23:59:43.068Z,-1.70
